Terminal Aerodrome Forecast
Issued by NWS Wichita, KS

Home | Current Version | Previous Version | Graphics & Text | Print | Product List | Glossary On
Versions: 1 2 3 4 5 6 7 8 9 10 11 12 13 14 15 16 17 18 19 20 21 22
000
FTUS43 KICT 022215 AAC
TAFICT
TAF AMD
KICT 022215Z 0222/0318 03009KT P6SM VCTS SCT030 BKN060CB
      TEMPO 0222/0223 -SHRA SCT020 BKN060
     FM022300 03008KT P6SM VCSH SCT060 BKN150
     FM030200 VRB03KT P6SM BKN080
     FM031200 29005KT P6SM SKC=

USA.gov is the U.S. government's official web portal to all federal, state and local government web resources and services.